Gilark, Louisiana
Current Conditions -  °F | °C
As of 12:55 AM on Thursday 23 Oct 2014 (Local Time) from KMNE Reporting Station
Clear Clear  
Wind Chill: 57°   Ceiling: Unl
Heat Index: 57°   Visibility: 10mi
Dew Point: 52°   Wind: 5mph
Humidity: 82%   Direction: 80°E
Pressure: 30.15"   Gusts: NA
Location:  32.7093°N, 93.3068°W
Report Text: KMNE 230555Z AUTO 08004KT 10SM CLR 14/11 A3015 RMK AO2
Loading
Personal Weather Stations






























Interactive Weather Map
Tropical Storm Tracking
New forecast layout! Learn more

10-Day Weather Forecast

Advertisements
Track Severe Weather on mobile